Hong Xiang 2 — BYBA — position and weather

sailwx.info

Track history (hours):
 
Tides and Currents Weather Stations Pressure Air Temp Water Temp Dewpoint Dewpoint Depression Visibility Wind Speed Wind Dir Waves Ship Positions

Hong Xiang 2

Last reported at 2015-May-23 15:24 UTC. Time now 2015-May-23 16:28 UTC.
Position N 23°17' E 116°49'.

Length 96 m; draft 4.5 m.

Type: Ship (hazmat cat A). MMSI: 413413000.

Date/timePositionNaut miles runAvg speedWind from/ knotsBaromVisibWave heightAir tempDewpointWater temp
2015-May-23 15:24N 23°17' E 116°49'0 0.1
2015-May-23 14:29N 23°17' E 116°49'0 0.0
2015-May-23 13:30N 23°17' E 116°49'0 0.1
2015-May-23 12:24N 23°17' E 116°49'0 0.0
2015-May-23 11:29N 23°17' E 116°49'0 0.0
2015-May-23 09:17N 23°17' E 116°49'0 0.1
2015-May-23 08:29N 23°17' E 116°49'0 0.0
2015-May-23 07:29N 23°17' E 116°49'0 0.0
2015-May-23 06:29N 23°17' E 116°49'0 0.0
2015-May-23 05:29N 23°17' E 116°49'0 0.0
2015-May-23 03:29N 23°17' E 116°49'0 0.1
2015-May-23 02:29N 23°17' E 116°49'0 0.1
2015-May-23 01:17N 23°17' E 116°49'0 0.1
2015-May-23 00:23N 23°17' E 116°49'0 0.0
2015-May-22 23:23N 23°17' E 116°49'0 0.0
2015-May-22 22:17N 23°17' E 116°49'0 0.0
2015-May-22 21:17N 23°17' E 116°49'0 0.1
2015-May-22 20:29N 23°17' E 116°49'0 0.0
2015-May-22 19:29N 23°17' E 116°49'0 0.0
2015-May-22 17:23N 23°17' E 116°49'0 0.0
2015-May-22 16:29N 23°17' E 116°49'0 0.0
2015-May-22 15:17N 23°17' E 116°49'0 0.0
2015-May-22 14:29N 23°17' E 116°49'0 0.1
2015-May-22 13:29N 23°17' E 116°49'0 0.1
2015-May-22 12:29N 23°17' E 116°49'0 0.1
2015-May-22 11:23N 23°17' E 116°49'0 0.0
2015-May-22 10:30N 23°17' E 116°49'0 0.0
2015-May-22 09:29N 23°17' E 116°49'0 0.1
2015-May-22 08:29N 23°17' E 116°49'0 0.0
2015-May-22 07:29N 23°17' E 116°49'0 0.1
2015-May-22 06:28N 23°17' E 116°49'0 0.1
2015-May-22 05:29N 23°17' E 116°49'0 0.0
2015-May-22 04:29N 23°17' E 116°49'0 0.1
2015-May-22 03:29N 23°17' E 116°49'0 0.0
2015-May-22 02:28N 23°17' E 116°49'0 0.0
2015-May-22 01:29N 23°17' E 116°49'0 0.0
2015-May-22 00:22N 23°17' E 116°49'0 0.1
2015-May-21 23:29N 23°17' E 116°49'0 0.0
2015-May-21 22:27N 23°17' E 116°49'0 0.0
2015-May-21 21:33N 23°17' E 116°49'0 0.0
2015-May-21 20:29N 23°17' E 116°49'0 0.0
2015-May-21 19:29N 23°17' E 116°49'0 0.1
2015-May-21 18:29N 23°17' E 116°49'0 0.0
2015-May-21 17:29N 23°17' E 116°49'0 0.0
2015-May-21 16:23N 23°17' E 116°49'0 0.0
2015-May-21 15:29N 23°17' E 116°49'0 0.1
2015-May-21 14:26N 23°17' E 116°49'0 0.0
2015-May-21 13:32N 23°17' E 116°49'0 0.0
2015-May-21 12:31N 23°17' E 116°49'0 0.0
2015-May-21 11:25N 23°17' E 116°49'0 0.0
2015-May-21 10:31N 23°17' E 116°49'0 0.0
2015-May-21 09:33N 23°17' E 116°49'0 0.0
2015-May-21 08:33N 23°17' E 116°49'0 0.0
2015-May-21 07:32N 23°17' E 116°49'1 1.0
2015-May-21 06:33N 23°16' E 116°48'9 8.6
2015-May-21 05:33N 23°21' E 116°40'8 7.7
2015-May-21 04:33N 23°25' E 116°33'1 0.0
2015-May-20 01:33N 23°26' E 116°32'7 7.1
2015-May-20 00:33N 23°20' E 116°37'7 7.2
2015-May-19 23:33N 23°20' E 116°45'6 5.9
2015-May-19 22:33N 23°16' E 116°50'0 0.1
2015-May-19 21:27N 23°16' E 116°50'0 0.0
2015-May-19 20:33N 23°16' E 116°50'0 0.1
2015-May-19 19:33N 23°16' E 116°50'0 0.1
2015-May-19 18:33N 23°16' E 116°50'0 0.0
2015-May-19 17:27N 23°16' E 116°50'0 0.1
2015-May-19 16:27N 23°16' E 116°50'0 0.0
2015-May-19 15:27N 23°16' E 116°50'0 0.1
2015-May-19 14:33N 23°16' E 116°50'0 0.0
2015-May-19 13:33N 23°16' E 116°50'0 0.0
2015-May-19 12:33N 23°16' E 116°50'0 0.0
2015-May-19 11:33N 23°16' E 116°50'0 0.0
2015-May-19 10:28N 23°16' E 116°50'0 0.1
2015-May-19 09:33N 23°16' E 116°50'0 0.1
2015-May-19 08:28N 23°16' E 116°50'0 0.1
2015-May-19 07:15N 23°16' E 116°50'0 0.0
2015-May-19 06:28N 23°16' E 116°50'0 0.1
2015-May-19 05:22N 23°16' E 116°50'0 0.0
2015-May-19 04:28N 23°16' E 116°50'0 0.0
2015-May-19 03:28N 23°16' E 116°50'7 7.3
2015-May-19 02:30N 23°10' E 116°47'13911.3
2015-May-18 14:13N 22°11' E 114°31'911.9
2015-May-18 13:25N 22°08' E 114°21'61 7.6
2015-May-18 05:26N 21°52' E 113°18'6 6.4
2015-May-18 04:33N 21°55' E 113°13'0 0.0
2015-May-18 03:33N 21°55' E 113°13'0 0.0
2015-May-18 02:33N 21°55' E 113°13'0 0.0
2015-May-18 01:33N 21°55' E 113°13'0 0.0
2015-May-18 00:33N 21°55' E 113°13'0 0.0
2015-May-17 23:33N 21°55' E 113°13'0 0.0
2015-May-17 22:09N 21°55' E 113°13'0 0.0
2015-May-17 21:21N 21°55' E 113°13'0 0.0
2015-May-17 20:27N 21°55' E 113°13'0 0.0
2015-May-17 19:33N 21°55' E 113°13'0 0.0
2015-May-17 18:33N 21°55' E 113°13'0 0.0
2015-May-17 17:27N 21°55' E 113°13'0 0.0
2015-May-17 16:27N 21°55' E 113°13'0 0.0
2015-May-17 15:33N 21°55' E 113°13'0 0.0
2015-May-17 14:33N 21°55' E 113°13'0 0.0
2015-May-17 13:33N 21°55' E 113°13'0 0.0
2015-May-17 12:33N 21°55' E 113°13'0 0.0
2015-May-17 11:33N 21°55' E 113°13'0 0.0
2015-May-17 10:33N 21°55' E 113°13'59 8.1
2015-May-17 03:19N 22°04' E 114°16'149 9.9
2015-May-16 12:19N 23°05' E 116°43'8 9.5
2015-May-16 11:26N 23°12' E 116°49'7 8.5
2015-May-16 10:33N 23°19' E 116°46'1111.4
2015-May-16 09:34N 23°22' E 116°34'6 0.5
2015-May-15 20:31N 23°27' E 116°30'0 0.0
2015-May-15 19:19N 23°27' E 116°30'0 0.0
2015-May-14 23:31N 23°27' E 116°30'0 0.0
2015-May-14 20:31N 23°27' E 116°30'0 0.0
2015-May-14 19:25N 23°27' E 116°30'0 0.0
2015-May-14 17:31N 23°27' E 116°30'0 0.0
2015-May-14 15:07N 23°27' E 116°30'48455.7
2015-May-14 06:26N 29°49' E 122°01'485556.9
2015-May-14 05:33N 23°22' E 116°34'9 8.9
2015-May-14 04:33N 23°21' E 116°43'56 9.4
2015-May-13 22:33N 23°42' E 117°40'9 9.2
2015-May-13 21:33N 23°48' E 117°48'29 9.5
2015-May-13 18:32N 24°06' E 118°13'  
Track history (hours):
 
Tides and Currents Weather Stations Pressure Air Temp Water Temp Dewpoint Dewpoint Depression Visibility Wind Speed Wind Dir Waves Ship Positions

Hong Xiang 2

Last reported at 2015-May-23 15:24 UTC. Time now 2015-May-23 16:28 UTC.
Position N 23°17' E 116°49'.

Length 96 m; draft 4.5 m.

Type: Ship (hazmat cat A). MMSI: 413413000.

Date/timePositionNaut miles runAvg speedWind from/ knotsBaromVisibWave heightAir tempDewpointWater temp
2015-May-23 15:24N 23°17' E 116°49'0 0.1
2015-May-23 14:29N 23°17' E 116°49'0 0.0
2015-May-23 13:30N 23°17' E 116°49'0 0.1
2015-May-23 12:24N 23°17' E 116°49'0 0.0
2015-May-23 11:29N 23°17' E 116°49'0 0.0
2015-May-23 09:17N 23°17' E 116°49'0 0.1
2015-May-23 08:29N 23°17' E 116°49'0 0.0
2015-May-23 07:29N 23°17' E 116°49'0 0.0
2015-May-23 06:29N 23°17' E 116°49'0 0.0
2015-May-23 05:29N 23°17' E 116°49'0 0.0
2015-May-23 03:29N 23°17' E 116°49'0 0.1
2015-May-23 02:29N 23°17' E 116°49'0 0.1
2015-May-23 01:17N 23°17' E 116°49'0 0.1
2015-May-23 00:23N 23°17' E 116°49'0 0.0
2015-May-22 23:23N 23°17' E 116°49'0 0.0
2015-May-22 22:17N 23°17' E 116°49'0 0.0
2015-May-22 21:17N 23°17' E 116°49'0 0.1
2015-May-22 20:29N 23°17' E 116°49'0 0.0
2015-May-22 19:29N 23°17' E 116°49'0 0.0
2015-May-22 17:23N 23°17' E 116°49'0 0.0
2015-May-22 16:29N 23°17' E 116°49'0 0.0
2015-May-22 15:17N 23°17' E 116°49'0 0.0
2015-May-22 14:29N 23°17' E 116°49'0 0.1
2015-May-22 13:29N 23°17' E 116°49'0 0.1
2015-May-22 12:29N 23°17' E 116°49'0 0.1
2015-May-22 11:23N 23°17' E 116°49'0 0.0
2015-May-22 10:30N 23°17' E 116°49'0 0.0
2015-May-22 09:29N 23°17' E 116°49'0 0.1
2015-May-22 08:29N 23°17' E 116°49'0 0.0
2015-May-22 07:29N 23°17' E 116°49'0 0.1
2015-May-22 06:28N 23°17' E 116°49'0 0.1
2015-May-22 05:29N 23°17' E 116°49'0 0.0
2015-May-22 04:29N 23°17' E 116°49'0 0.1
2015-May-22 03:29N 23°17' E 116°49'0 0.0
2015-May-22 02:28N 23°17' E 116°49'0 0.0
2015-May-22 01:29N 23°17' E 116°49'0 0.0
2015-May-22 00:22N 23°17' E 116°49'0 0.1
2015-May-21 23:29N 23°17' E 116°49'0 0.0
2015-May-21 22:27N 23°17' E 116°49'0 0.0
2015-May-21 21:33N 23°17' E 116°49'0 0.0
2015-May-21 20:29N 23°17' E 116°49'0 0.0
2015-May-21 19:29N 23°17' E 116°49'0 0.1
2015-May-21 18:29N 23°17' E 116°49'0 0.0
2015-May-21 17:29N 23°17' E 116°49'0 0.0
2015-May-21 16:23N 23°17' E 116°49'0 0.0
2015-May-21 15:29N 23°17' E 116°49'0 0.1
2015-May-21 14:26N 23°17' E 116°49'0 0.0
2015-May-21 13:32N 23°17' E 116°49'0 0.0
2015-May-21 12:31N 23°17' E 116°49'0 0.0
2015-May-21 11:25N 23°17' E 116°49'0 0.0
2015-May-21 10:31N 23°17' E 116°49'0 0.0
2015-May-21 09:33N 23°17' E 116°49'0 0.0
2015-May-21 08:33N 23°17' E 116°49'0 0.0
2015-May-21 07:32N 23°17' E 116°49'1 1.0
2015-May-21 06:33N 23°16' E 116°48'9 8.6
2015-May-21 05:33N 23°21' E 116°40'8 7.7
2015-May-21 04:33N 23°25' E 116°33'1 0.0
2015-May-20 01:33N 23°26' E 116°32'7 7.1
2015-May-20 00:33N 23°20' E 116°37'7 7.2
2015-May-19 23:33N 23°20' E 116°45'6 5.9
2015-May-19 22:33N 23°16' E 116°50'0 0.1
2015-May-19 21:27N 23°16' E 116°50'0 0.0
2015-May-19 20:33N 23°16' E 116°50'0 0.1
2015-May-19 19:33N 23°16' E 116°50'0 0.1
2015-May-19 18:33N 23°16' E 116°50'0 0.0
2015-May-19 17:27N 23°16' E 116°50'0 0.1
2015-May-19 16:27N 23°16' E 116°50'0 0.0
2015-May-19 15:27N 23°16' E 116°50'0 0.1
2015-May-19 14:33N 23°16' E 116°50'0 0.0
2015-May-19 13:33N 23°16' E 116°50'0 0.0
2015-May-19 12:33N 23°16' E 116°50'0 0.0
2015-May-19 11:33N 23°16' E 116°50'0 0.0
2015-May-19 10:28N 23°16' E 116°50'0 0.1
2015-May-19 09:33N 23°16' E 116°50'0 0.1
2015-May-19 08:28N 23°16' E 116°50'0 0.1
2015-May-19 07:15N 23°16' E 116°50'0 0.0
2015-May-19 06:28N 23°16' E 116°50'0 0.1
2015-May-19 05:22N 23°16' E 116°50'0 0.0
2015-May-19 04:28N 23°16' E 116°50'0 0.0
2015-May-19 03:28N 23°16' E 116°50'7 7.3
2015-May-19 02:30N 23°10' E 116°47'13911.3
2015-May-18 14:13N 22°11' E 114°31'911.9
2015-May-18 13:25N 22°08' E 114°21'61 7.6
2015-May-18 05:26N 21°52' E 113°18'6 6.4
2015-May-18 04:33N 21°55' E 113°13'0 0.0
2015-May-18 03:33N 21°55' E 113°13'0 0.0
2015-May-18 02:33N 21°55' E 113°13'0 0.0
2015-May-18 01:33N 21°55' E 113°13'0 0.0
2015-May-18 00:33N 21°55' E 113°13'0 0.0
2015-May-17 23:33N 21°55' E 113°13'0 0.0
2015-May-17 22:09N 21°55' E 113°13'0 0.0
2015-May-17 21:21N 21°55' E 113°13'0 0.0
2015-May-17 20:27N 21°55' E 113°13'0 0.0
2015-May-17 19:33N 21°55' E 113°13'0 0.0
2015-May-17 18:33N 21°55' E 113°13'0 0.0
2015-May-17 17:27N 21°55' E 113°13'0 0.0
2015-May-17 16:27N 21°55' E 113°13'0 0.0
2015-May-17 15:33N 21°55' E 113°13'0 0.0
2015-May-17 14:33N 21°55' E 113°13'0 0.0
2015-May-17 13:33N 21°55' E 113°13'0 0.0
2015-May-17 12:33N 21°55' E 113°13'0 0.0
2015-May-17 11:33N 21°55' E 113°13'0 0.0
2015-May-17 10:33N 21°55' E 113°13'59 8.1
2015-May-17 03:19N 22°04' E 114°16'149 9.9
2015-May-16 12:19N 23°05' E 116°43'8 9.5
2015-May-16 11:26N 23°12' E 116°49'7 8.5
2015-May-16 10:33N 23°19' E 116°46'1111.4
2015-May-16 09:34N 23°22' E 116°34'6 0.5
2015-May-15 20:31N 23°27' E 116°30'0 0.0
2015-May-15 19:19N 23°27' E 116°30'0 0.0
2015-May-14 23:31N 23°27' E 116°30'0 0.0
2015-May-14 20:31N 23°27' E 116°30'0 0.0
2015-May-14 19:25N 23°27' E 116°30'0 0.0
2015-May-14 17:31N 23°27' E 116°30'0 0.0
2015-May-14 15:07N 23°27' E 116°30'48455.7
2015-May-14 06:26N 29°49' E 122°01'485556.9
2015-May-14 05:33N 23°22' E 116°34'9 8.9
2015-May-14 04:33N 23°21' E 116°43'56 9.4
2015-May-13 22:33N 23°42' E 117°40'9 9.2
2015-May-13 21:33N 23°48' E 117°48'29 9.5
2015-May-13 18:32N 24°06' E 118°13'  

Dump ship's entire track history